createdAt,value
2023-05-25T00:01:02.669Z,101290.56
2023-05-25T00:02:25.949Z,101280.19
2023-05-25T00:03:49.549Z,101282.34
2023-05-25T00:05:12.061Z,101283.56
2023-05-25T00:06:37.432Z,101282.84
2023-05-25T00:08:00.353Z,101292.69
2023-05-25T00:09:22.332Z,101288.59
2023-05-25T00:10:45.167Z,101287.59
2023-05-25T00:12:08.855Z,101282.34
2023-05-25T00:13:31.706Z,101282.03
2023-05-25T00:14:54.526Z,101286.06
2023-05-25T00:16:17.766Z,101284.59
2023-05-25T00:17:41.125Z,101283.91
2023-05-25T00:19:03.851Z,101296.63
2023-05-25T00:20:26.972Z,101292.25
2023-05-25T00:21:48.972Z,101290.38
2023-05-25T00:23:11.829Z,101289.13
2023-05-25T00:24:34.638Z,101286.72
2023-05-25T00:25:57.531Z,101290.13
2023-05-25T00:27:19.377Z,101297.34
2023-05-25T00:28:42.244Z,101291.00
2023-05-25T00:30:05.826Z,101288.44
2023-05-25T00:31:29.799Z,101293.72
2023-05-25T00:32:54.068Z,101288.59
2023-05-25T00:34:17.472Z,101289.38
2023-05-25T00:35:42.679Z,101290.84
2023-05-25T00:37:06.021Z,101295.84
2023-05-25T00:38:27.878Z,101288.06
2023-05-25T00:39:50.743Z,101292.16
2023-05-25T00:41:13.243Z,101293.13
2023-05-25T00:42:36.240Z,101278.88
2023-05-25T00:43:59.059Z,101286.03
2023-05-25T00:45:21.202Z,101284.69
2023-05-25T00:46:49.728Z,101288.53
2023-05-25T00:48:12.538Z,101291.91
2023-05-25T00:49:36.868Z,101290.38
2023-05-25T00:51:00.794Z,101295.28
2023-05-25T00:52:22.744Z,101293.38
2023-05-25T00:53:45.611Z,101295.38
2023-05-25T00:55:11.869Z,101298.78
2023-05-25T00:56:41.187Z,101298.84
2023-05-25T00:58:04.609Z,101306.50
2023-05-25T00:59:36.040Z,101298.72
2023-05-25T01:01:00.941Z,101304.84
2023-05-25T01:02:27.020Z,101302.97
2023-05-25T01:03:53.853Z,101297.41
2023-05-25T01:05:18.387Z,101303.19
2023-05-25T01:06:44.018Z,101303.69
2023-05-25T01:08:08.679Z,101302.72
2023-05-25T01:09:34.478Z,101297.31
2023-05-25T01:10:58.449Z,101297.75
2023-05-25T01:12:23.561Z,101299.16
2023-05-25T01:13:46.305Z,101294.00
2023-05-25T01:15:10.795Z,101302.50
2023-05-25T01:16:32.986Z,101302.06
2023-05-25T01:17:59.737Z,101301.63
2023-05-25T01:19:21.930Z,101309.34
2023-05-25T01:20:58.719Z,101305.47
2023-05-25T01:22:28.257Z,101304.25
2023-05-25T01:23:56.225Z,101303.19
2023-05-25T01:25:23.812Z,101296.06
2023-05-25T01:26:51.842Z,101297.31
2023-05-25T01:28:19.575Z,101299.81
2023-05-25T01:29:44.567Z,101304.31
2023-05-25T01:31:08.693Z,101304.41
2023-05-25T01:32:32.444Z,101300.22
2023-05-25T01:33:57.236Z,101300.53
2023-05-25T01:35:20.633Z,101298.63
2023-05-25T01:36:44.862Z,101298.69
2023-05-25T01:38:08.324Z,101306.56
2023-05-25T01:39:31.191Z,101308.84
2023-05-25T01:40:54.090Z,101309.53
2023-05-25T01:42:16.925Z,101312.22
2023-05-25T01:43:38.875Z,101314.13
2023-05-25T01:45:02.359Z,101308.47
2023-05-25T01:46:32.141Z,101302.75
2023-05-25T01:48:03.635Z,101306.22
2023-05-25T01:49:31.602Z,101308.44
2023-05-25T01:50:59.202Z,101296.88
2023-05-25T01:52:27.308Z,101301.63
2023-05-25T01:53:55.520Z,101294.50
2023-05-25T01:55:21.203Z,101301.75
2023-05-25T01:56:46.735Z,101298.31
2023-05-25T01:58:10.434Z,101292.81
2023-05-25T01:59:34.198Z,101298.50
2023-05-25T02:00:58.674Z,101294.66
2023-05-25T02:02:21.101Z,101296.84
2023-05-25T02:03:45.106Z,101303.41
2023-05-25T02:05:08.862Z,101305.25
2023-05-25T02:06:30.979Z,101300.56
2023-05-25T02:07:55.479Z,101297.03
2023-05-25T02:09:18.337Z,101305.31
2023-05-25T02:10:41.183Z,101301.19
2023-05-25T02:12:04.973Z,101303.41
2023-05-25T02:13:27.902Z,101299.94
2023-05-25T02:14:50.981Z,101298.13
2023-05-25T02:16:12.889Z,101295.47
2023-05-25T02:17:37.206Z,101298.63
2023-05-25T02:18:59.301Z,101301.19
2023-05-25T02:20:22.428Z,101295.34
2023-05-25T02:21:44.395Z,101290.41
2023-05-25T02:23:08.562Z,101291.75
2023-05-25T02:24:31.389Z,101295.44
2023-05-25T02:25:53.461Z,101289.66
2023-05-25T02:27:16.374Z,101290.78
2023-05-25T02:28:38.249Z,101294.06
2023-05-25T02:30:01.071Z,101286.34
2023-05-25T02:31:23.017Z,101296.47
2023-05-25T02:32:46.097Z,101293.16
2023-05-25T02:34:08.139Z,101291.91
2023-05-25T02:35:30.978Z,101297.31
2023-05-25T02:36:53.837Z,101296.06
2023-05-25T02:38:17.093Z,101295.56
2023-05-25T02:39:40.547Z,101296.34
2023-05-25T02:41:03.348Z,101287.22
2023-05-25T02:42:25.220Z,101289.66
2023-05-25T02:43:48.123Z,101280.16
2023-05-25T02:45:12.070Z,101285.72
2023-05-25T02:46:34.102Z,101283.59
2023-05-25T02:47:57.079Z,101284.50
2023-05-25T02:49:20.192Z,101283.09
2023-05-25T02:50:43.270Z,101283.13
2023-05-25T02:52:06.145Z,101288.78
2023-05-25T02:53:30.294Z,101294.09
2023-05-25T02:54:52.234Z,101289.34
2023-05-25T02:56:15.049Z,101287.13
2023-05-25T02:57:37.191Z,101291.38
2023-05-25T02:58:59.990Z,101294.66
2023-05-25T03:00:21.853Z,101293.81
2023-05-25T03:01:44.663Z,101297.84
2023-05-25T03:03:06.738Z,101304.41
2023-05-25T03:04:31.219Z,101300.16
2023-05-25T03:05:53.327Z,101303.97
2023-05-25T03:07:16.388Z,101305.72
2023-05-25T03:08:41.164Z,101307.66
2023-05-25T03:10:03.532Z,101301.97
2023-05-25T03:11:26.884Z,101301.06
2023-05-25T03:12:48.763Z,101305.31
2023-05-25T03:14:13.148Z,101306.13
2023-05-25T03:15:35.998Z,101304.38
2023-05-25T03:16:57.932Z,101302.91
2023-05-25T03:18:20.752Z,101298.47
2023-05-25T03:19:43.972Z,101309.91
2023-05-25T03:21:07.223Z,101308.75
2023-05-25T03:22:29.125Z,101307.31
2023-05-25T03:23:53.460Z,101310.50
2023-05-25T03:25:15.544Z,101315.56
2023-05-25T03:26:38.413Z,101307.53
2023-05-25T03:28:01.928Z,101313.22
2023-05-25T03:29:23.799Z,101310.22
2023-05-25T03:30:47.463Z,101305.53
2023-05-25T03:32:09.372Z,101312.34
2023-05-25T03:33:33.346Z,101307.03
2023-05-25T03:34:55.368Z,101313.66
2023-05-25T03:36:18.305Z,101322.63
2023-05-25T03:37:40.336Z,101319.91
2023-05-25T03:39:04.659Z,101316.00
2023-05-25T03:40:26.794Z,101322.25
2023-05-25T03:41:49.955Z,101317.41
2023-05-25T03:43:12.773Z,101325.53
2023-05-25T03:44:34.673Z,101326.22
2023-05-25T03:45:57.477Z,101325.09
2023-05-25T03:47:20.344Z,101325.34
2023-05-25T03:48:43.248Z,101324.38
2023-05-25T03:50:07.072Z,101329.75
2023-05-25T03:51:29.920Z,101329.31
2023-05-25T03:52:52.740Z,101333.44
2023-05-25T03:54:16.833Z,101340.81
2023-05-25T03:58:22.124Z,101339.72
2023-05-25T03:59:44.954Z,101338.25
2023-05-25T04:01:09.723Z,101341.19
2023-05-25T04:02:32.803Z,101345.06
2023-05-25T04:03:54.912Z,101349.25
2023-05-25T04:05:17.876Z,101352.69
2023-05-25T04:06:40.151Z,101357.59
2023-05-25T04:08:03.347Z,101355.75
2023-05-25T04:09:27.515Z,101352.53
2023-05-25T04:10:50.408Z,101356.00
2023-05-25T04:12:12.286Z,101352.88
2023-05-25T04:13:36.407Z,101355.66
2023-05-25T04:14:59.335Z,101364.56
2023-05-25T04:16:21.862Z,101372.66
2023-05-25T04:17:45.109Z,101365.63
2023-05-25T04:19:08.033Z,101363.47
2023-05-25T04:20:31.188Z,101374.50
2023-05-25T04:21:54.095Z,101376.34
2023-05-25T04:23:17.555Z,101365.84
2023-05-25T04:24:42.227Z,101367.50
2023-05-25T04:26:05.987Z,101367.44
2023-05-25T04:27:28.832Z,101366.78
2023-05-25T04:28:51.974Z,101369.00
2023-05-25T04:30:15.041Z,101370.06
2023-05-25T04:31:37.051Z,101367.81
2023-05-25T04:33:02.853Z,101367.81
2023-05-25T04:34:26.196Z,101367.50
2023-05-25T04:35:50.513Z,101366.72
2023-05-25T04:37:13.318Z,101371.13
2023-05-25T04:38:36.168Z,101368.53
2023-05-25T04:40:01.623Z,101367.25
2023-05-25T04:41:25.835Z,101368.19
2023-05-25T04:42:49.197Z,101369.75
2023-05-25T04:44:13.929Z,101365.41
2023-05-25T04:45:37.118Z,101370.13
2023-05-25T04:47:01.255Z,101371.22
2023-05-25T04:48:24.565Z,101372.59
2023-05-25T04:49:47.394Z,101362.72
2023-05-25T04:51:10.342Z,101363.22
2023-05-25T04:52:32.583Z,101362.25
2023-05-25T04:53:55.851Z,101363.41
2023-05-25T04:55:20.066Z,101367.81
2023-05-25T04:56:42.951Z,101363.59
2023-05-25T04:58:06.252Z,101365.91
2023-05-25T04:59:29.234Z,101363.56
2023-05-25T05:00:52.608Z,101364.63
2023-05-25T05:02:15.649Z,101360.63
2023-05-25T05:03:38.513Z,101364.63
2023-05-25T05:05:00.402Z,101361.09
2023-05-25T05:06:25.747Z,101362.47
2023-05-25T05:07:48.682Z,101364.41
2023-05-25T05:09:11.735Z,101363.69
2023-05-25T05:10:35.920Z,101363.50
2023-05-25T05:11:57.824Z,101358.19
2023-05-25T05:13:20.819Z,101364.19
2023-05-25T05:14:43.718Z,101368.63
2023-05-25T05:16:06.572Z,101366.75
2023-05-25T05:17:30.788Z,101370.31
2023-05-25T05:18:53.827Z,101374.72
2023-05-25T05:20:16.892Z,101365.69
2023-05-25T05:21:39.137Z,101374.16
2023-05-25T05:23:01.963Z,101376.13
2023-05-25T05:24:23.888Z,101376.47
2023-05-25T05:25:48.348Z,101368.91
2023-05-25T05:27:10.739Z,101368.72
2023-05-25T05:28:33.864Z,101381.69
2023-05-25T05:29:56.890Z,101385.47
2023-05-25T05:31:20.054Z,101387.84
2023-05-25T05:32:45.955Z,101386.28
2023-05-25T05:34:08.588Z,101398.72
2023-05-25T05:35:32.220Z,101395.03
2023-05-25T05:36:58.622Z,101405.81
2023-05-25T05:38:22.167Z,101400.00
2023-05-25T05:39:44.109Z,101406.66
2023-05-25T05:41:13.377Z,101406.19
2023-05-25T05:42:35.291Z,101408.25
2023-05-25T05:43:58.806Z,101408.91
2023-05-25T05:45:21.624Z,101413.06
2023-05-25T05:46:43.849Z,101416.34
2023-05-25T05:48:09.834Z,101413.56
2023-05-25T05:49:34.441Z,101412.75
2023-05-25T05:50:57.306Z,101416.50
2023-05-25T05:52:19.192Z,101416.94
2023-05-25T05:53:42.237Z,101410.47
2023-05-25T05:55:04.574Z,101408.16
2023-05-25T05:56:28.762Z,101415.00
2023-05-25T05:57:51.609Z,101415.06
2023-05-25T05:59:14.665Z,101408.56
2023-05-25T06:00:37.627Z,101421.47
2023-05-25T06:01:59.771Z,101412.75
2023-05-25T06:03:23.364Z,101415.25
2023-05-25T06:04:46.184Z,101420.22
2023-05-25T06:06:09.198Z,101424.06
2023-05-25T06:07:34.975Z,101423.47
2023-05-25T06:08:57.826Z,101423.53
2023-05-25T06:10:19.735Z,101422.44
2023-05-25T06:11:43.988Z,101419.44
2023-05-25T06:13:07.859Z,101417.25
2023-05-25T06:14:30.684Z,101416.44
2023-05-25T06:15:53.492Z,101416.47
2023-05-25T06:17:16.442Z,101412.09
2023-05-25T06:18:39.351Z,101413.72
2023-05-25T06:20:01.325Z,101404.41
2023-05-25T06:21:24.182Z,101406.91
2023-05-25T06:22:47.013Z,101403.59
2023-05-25T06:24:09.895Z,101399.47
2023-05-25T06:25:32.809Z,101404.69
2023-05-25T06:26:56.998Z,101406.28
2023-05-25T06:28:19.785Z,101397.78
2023-05-25T06:29:42.592Z,101400.22
2023-05-25T06:31:06.156Z,101397.75
2023-05-25T06:32:29.039Z,101394.44
2023-05-25T06:33:51.882Z,101396.28
2023-05-25T06:35:19.563Z,101402.09
2023-05-25T06:36:42.437Z,101398.75
2023-05-25T06:38:05.267Z,101402.81
2023-05-25T06:39:28.088Z,101409.31
2023-05-25T06:40:50.926Z,101403.53
2023-05-25T06:42:15.083Z,101399.16
2023-05-25T06:43:37.870Z,101402.94
2023-05-25T06:45:00.793Z,101407.34
2023-05-25T06:46:23.656Z,101408.13
2023-05-25T06:47:46.516Z,101418.38
2023-05-25T06:49:09.396Z,101420.78
2023-05-25T06:50:32.586Z,101414.06
2023-05-25T06:51:55.851Z,101415.97
2023-05-25T06:53:18.674Z,101419.19
2023-05-25T06:54:41.554Z,101421.59
2023-05-25T06:56:04.694Z,101410.81
2023-05-25T06:57:28.823Z,101418.72
2023-05-25T06:58:52.070Z,101415.59
2023-05-25T07:00:16.530Z,101412.94
2023-05-25T07:01:39.378Z,101412.03
2023-05-25T07:03:02.711Z,101415.56
2023-05-25T07:04:25.641Z,101418.59
2023-05-25T07:05:48.549Z,101419.06
2023-05-25T07:07:12.650Z,101414.31
2023-05-25T07:08:36.292Z,101414.91
2023-05-25T07:09:59.404Z,101417.09
2023-05-25T07:11:23.337Z,101421.16
2023-05-25T07:12:47.520Z,101421.34
2023-05-25T07:14:10.667Z,101415.44
2023-05-25T07:15:33.473Z,101420.22
2023-05-25T07:16:56.254Z,101420.31
2023-05-25T07:18:18.581Z,101421.31
2023-05-25T07:19:43.218Z,101419.91
2023-05-25T07:21:06.858Z,101417.03
2023-05-25T07:22:29.696Z,101417.44
2023-05-25T07:23:52.587Z,101420.19
2023-05-25T07:25:15.770Z,101424.09
2023-05-25T07:26:38.603Z,101422.75
2023-05-25T07:28:02.858Z,101421.13
2023-05-25T07:29:26.278Z,101423.59
2023-05-25T07:30:49.325Z,101425.44
2023-05-25T07:32:12.210Z,101426.31
2023-05-25T07:33:35.043Z,101420.25
2023-05-25T07:34:58.283Z,101419.81
2023-05-25T07:36:21.099Z,101417.44
2023-05-25T07:37:44.159Z,101415.94
2023-05-25T07:39:08.595Z,101426.22
2023-05-25T07:40:31.614Z,101415.97
2023-05-25T07:41:54.565Z,101420.28
2023-05-25T07:43:18.802Z,101420.06
2023-05-25T07:44:41.610Z,101422.06
2023-05-25T07:46:03.529Z,101413.56
2023-05-25T07:47:26.869Z,101420.88
2023-05-25T07:48:50.044Z,101423.13
2023-05-25T07:50:13.049Z,101428.31
2023-05-25T07:51:35.884Z,101419.16
2023-05-25T07:52:59.852Z,101424.31
2023-05-25T07:54:21.789Z,101418.03
2023-05-25T07:55:44.951Z,101418.66
2023-05-25T07:57:08.258Z,101414.69
2023-05-25T07:58:31.479Z,101418.78
2023-05-25T07:59:54.375Z,101422.06
2023-05-25T08:01:17.396Z,101422.59
2023-05-25T08:02:41.011Z,101422.63
2023-05-25T08:04:03.987Z,101419.41
2023-05-25T08:05:26.880Z,101417.81
2023-05-25T08:06:49.801Z,101421.16
2023-05-25T08:08:14.271Z,101420.22
2023-05-25T08:09:37.195Z,101422.50
2023-05-25T08:11:00.114Z,101423.94
2023-05-25T08:12:38.483Z,101423.22
2023-05-25T08:14:07.145Z,101419.34
2023-05-25T08:15:30.017Z,101430.16
2023-05-25T08:16:52.996Z,101426.34
2023-05-25T08:18:16.052Z,101423.72
2023-05-25T08:19:39.071Z,101425.00
2023-05-25T08:21:02.069Z,101428.50
2023-05-25T08:22:24.901Z,101425.28
2023-05-25T08:23:46.902Z,101423.09
2023-05-25T08:25:11.175Z,101420.56
2023-05-25T08:26:52.997Z,101412.00
2023-05-25T08:28:17.488Z,101420.78
2023-05-25T08:29:41.907Z,101426.69
2023-05-25T08:31:04.826Z,101420.91
2023-05-25T08:32:27.788Z,101424.50
2023-05-25T08:33:50.679Z,101422.19
2023-05-25T08:35:14.112Z,101423.34
2023-05-25T08:36:37.964Z,101428.16
2023-05-25T08:38:00.838Z,101423.47
2023-05-25T08:39:23.763Z,101412.19
2023-05-25T08:40:46.691Z,101419.38
2023-05-25T08:42:10.225Z,101426.00
2023-05-25T08:43:33.783Z,101424.38
2023-05-25T08:44:58.786Z,101427.63
2023-05-25T08:46:31.048Z,101424.66
2023-05-25T08:47:59.237Z,101427.66
2023-05-25T08:49:24.006Z,101430.94
2023-05-25T08:50:49.498Z,101428.22
2023-05-25T08:52:15.998Z,101429.59
2023-05-25T08:53:39.974Z,101438.19
2023-05-25T08:55:06.302Z,101430.03
2023-05-25T08:56:36.911Z,101436.63
2023-05-25T08:58:07.873Z,101432.88
2023-05-25T08:59:36.530Z,101432.09
2023-05-25T09:01:06.564Z,101439.13
2023-05-25T09:02:35.968Z,101441.66
2023-05-25T09:04:01.116Z,101443.53
2023-05-25T09:05:25.522Z,101445.66
2023-05-25T09:06:57.270Z,101443.50
2023-05-25T09:08:29.327Z,101444.03
2023-05-25T09:09:52.979Z,101437.09
2023-05-25T09:11:19.412Z,101448.38
2023-05-25T09:12:54.875Z,101442.81
2023-05-25T09:14:17.973Z,101445.69
2023-05-25T09:15:40.968Z,101435.38
2023-05-25T09:17:05.643Z,101441.56
2023-05-25T09:18:28.666Z,101447.53
2023-05-25T09:19:51.979Z,101449.47
2023-05-25T09:21:14.858Z,101446.81
2023-05-25T09:22:38.023Z,101445.56
2023-05-25T09:24:01.511Z,101439.38
2023-05-25T09:25:26.325Z,101445.72
2023-05-25T09:26:49.638Z,101438.47
2023-05-25T09:29:38.287Z,101437.41
2023-05-25T09:31:01.216Z,101438.78
2023-05-25T09:32:26.169Z,101448.06
2023-05-25T09:33:49.201Z,101440.88
2023-05-25T09:35:14.545Z,101455.91
2023-05-25T09:36:41.175Z,101447.44
2023-05-25T09:38:04.191Z,101448.22
2023-05-25T09:39:27.291Z,101453.56
2023-05-25T09:40:50.329Z,101452.75
2023-05-25T09:42:13.239Z,101441.06
2023-05-25T09:43:41.931Z,101452.84
2023-05-25T09:45:10.360Z,101454.06
2023-05-25T09:46:36.898Z,101445.78
2023-05-25T09:48:01.243Z,101453.22
2023-05-25T09:49:24.237Z,101455.97
2023-05-25T09:50:49.588Z,101446.59
2023-05-25T09:52:13.430Z,101461.22
2023-05-25T09:53:36.507Z,101453.66
2023-05-25T09:54:59.456Z,101456.63
2023-05-25T09:56:23.853Z,101458.06
2023-05-25T09:57:47.003Z,101454.88
2023-05-25T09:59:09.891Z,101450.09
2023-05-25T10:00:32.846Z,101443.44
2023-05-25T10:01:56.042Z,101446.72
2023-05-25T10:03:21.841Z,101443.41
2023-05-25T10:04:46.361Z,101437.78
2023-05-25T10:06:09.574Z,101445.50
2023-05-25T10:07:34.520Z,101447.84
2023-05-25T10:08:58.768Z,101442.97
2023-05-25T10:10:21.625Z,101446.78
2023-05-25T10:11:44.861Z,101447.59
2023-05-25T10:13:09.933Z,101441.66
2023-05-25T10:14:36.622Z,101447.84
2023-05-25T10:16:01.020Z,101444.63
2023-05-25T10:17:25.445Z,101448.34
2023-05-25T10:18:55.679Z,101437.19
2023-05-25T10:20:18.718Z,101443.34
2023-05-25T10:21:43.498Z,101433.88
2023-05-25T10:23:11.492Z,101438.25
2023-05-25T10:24:39.298Z,101440.53
2023-05-25T10:26:04.561Z,101438.72
2023-05-25T10:27:38.550Z,101432.44
2023-05-25T10:29:04.338Z,101437.38
2023-05-25T10:30:28.289Z,101440.72
2023-05-25T10:31:52.217Z,101447.22
2023-05-25T10:33:15.325Z,101440.28
2023-05-25T10:34:39.669Z,101445.22
2023-05-25T10:36:10.576Z,101436.75
2023-05-25T10:37:35.198Z,101438.09
2023-05-25T10:38:59.523Z,101440.81
2023-05-25T10:40:23.417Z,101440.75
2023-05-25T10:41:47.540Z,101441.63
2023-05-25T10:43:10.419Z,101441.34
2023-05-25T10:44:33.808Z,101438.41
2023-05-25T10:45:58.046Z,101441.16
2023-05-25T10:47:21.898Z,101437.50
2023-05-25T10:48:47.849Z,101444.09
2023-05-25T10:50:22.654Z,101436.78
2023-05-25T10:51:59.080Z,101442.19
2023-05-25T10:53:22.251Z,101438.56
2023-05-25T10:54:44.487Z,101438.38
2023-05-25T10:56:09.962Z,101446.66
2023-05-25T10:57:49.506Z,101434.75
2023-05-25T10:59:14.696Z,101430.22
2023-05-25T11:00:37.724Z,101438.66
2023-05-25T11:02:09.374Z,101432.69
2023-05-25T11:03:54.687Z,101427.66
2023-05-25T11:05:39.291Z,101427.38
2023-05-25T11:07:08.511Z,101427.81
2023-05-25T11:08:50.176Z,101425.75
2023-05-25T11:10:15.948Z,101417.25
2023-05-25T11:12:03.656Z,101426.75
2023-05-25T11:13:40.589Z,101419.81
2023-05-25T11:15:15.053Z,101424.75
2023-05-25T11:16:40.215Z,101417.03
2023-05-25T11:18:03.212Z,101415.34
2023-05-25T11:19:39.471Z,101409.16
2023-05-25T11:21:14.759Z,101416.38
2023-05-25T11:22:37.723Z,101414.22
2023-05-25T11:24:03.330Z,101414.19
2023-05-25T11:25:40.445Z,101421.66
2023-05-25T11:27:05.985Z,101417.66
2023-05-25T11:28:32.471Z,101413.69
2023-05-25T11:29:57.678Z,101409.03
2023-05-25T11:31:23.331Z,101410.78
2023-05-25T11:32:50.645Z,101415.09
2023-05-25T11:34:14.185Z,101411.78
2023-05-25T11:35:38.827Z,101418.28
2023-05-25T11:37:03.758Z,101408.91
2023-05-25T11:38:27.432Z,101420.69
2023-05-25T11:39:51.574Z,101416.31
2023-05-25T11:41:17.101Z,101404.59
2023-05-25T11:42:42.553Z,101414.91
2023-05-25T11:44:06.982Z,101408.09
2023-05-25T11:45:30.326Z,101409.09
2023-05-25T11:46:54.629Z,101408.06
2023-05-25T11:48:18.290Z,101411.34
2023-05-25T11:49:44.186Z,101412.31
2023-05-25T11:51:07.431Z,101408.06
2023-05-25T11:52:31.557Z,101413.44
2023-05-25T11:53:54.814Z,101416.53
2023-05-25T11:55:17.693Z,101408.28
2023-05-25T11:56:40.609Z,101407.03
2023-05-25T11:58:03.548Z,101410.66
2023-05-25T11:59:28.668Z,101406.16
2023-05-25T12:00:52.767Z,101392.59
2023-05-25T12:02:15.611Z,101408.69
2023-05-25T12:03:38.583Z,101395.47
2023-05-25T12:05:02.434Z,101397.28
2023-05-25T12:06:27.537Z,101390.78
2023-05-25T12:07:51.959Z,101397.72
2023-05-25T12:09:14.804Z,101393.75
2023-05-25T12:10:50.371Z,101394.19
2023-05-25T12:12:13.409Z,101381.16
2023-05-25T12:13:36.664Z,101388.31
2023-05-25T12:14:59.564Z,101384.06
2023-05-25T12:16:22.729Z,101383.00
2023-05-25T12:17:46.781Z,101383.38
2023-05-25T12:19:11.213Z,101386.09
2023-05-25T12:20:34.182Z,101391.56
2023-05-25T12:21:57.382Z,101389.13
2023-05-25T12:23:21.716Z,101380.09
2023-05-25T12:24:44.600Z,101380.59
2023-05-25T12:26:10.770Z,101387.91
2023-05-25T12:27:33.642Z,101379.81
2023-05-25T12:29:00.646Z,101375.19
2023-05-25T12:30:29.293Z,101381.69
2023-05-25T12:31:52.572Z,101377.88
2023-05-25T12:33:16.037Z,101377.44
2023-05-25T12:34:39.070Z,101379.94
2023-05-25T12:36:01.897Z,101384.56
2023-05-25T12:37:24.759Z,101373.44
2023-05-25T12:39:00.577Z,101371.31
2023-05-25T12:40:24.663Z,101366.34
2023-05-25T12:41:51.257Z,101364.97
2023-05-25T12:43:17.617Z,101368.38
2023-05-25T12:44:41.501Z,101370.66
2023-05-25T12:46:04.413Z,101366.44
2023-05-25T12:47:30.284Z,101364.81
2023-05-25T12:48:52.237Z,101372.97
2023-05-25T12:50:16.332Z,101367.94
2023-05-25T12:51:39.649Z,101364.13
2023-05-25T12:53:03.534Z,101367.59
2023-05-25T12:54:44.006Z,101359.97
2023-05-25T12:56:12.608Z,101357.41
2023-05-25T12:57:36.255Z,101354.16
2023-05-25T12:59:16.716Z,101354.00
2023-05-25T13:00:41.193Z,101358.97
2023-05-25T13:02:04.747Z,101353.59
2023-05-25T13:03:27.906Z,101359.84
2023-05-25T13:04:50.832Z,101351.22
2023-05-25T13:06:13.666Z,101358.31
2023-05-25T13:07:36.454Z,101365.84
2023-05-25T13:08:59.249Z,101360.28
2023-05-25T13:10:24.488Z,101355.63
2023-05-25T13:11:47.310Z,101351.34
2023-05-25T13:13:13.112Z,101361.56
2023-05-25T13:14:36.055Z,101360.53
2023-05-25T13:15:59.191Z,101346.16
2023-05-25T13:17:22.204Z,101346.81
2023-05-25T13:18:45.179Z,101354.84
2023-05-25T13:20:08.730Z,101350.88
2023-05-25T13:21:31.558Z,101351.66
2023-05-25T13:22:56.350Z,101346.38
2023-05-25T13:24:20.497Z,101347.63
2023-05-25T13:25:45.108Z,101348.19
2023-05-25T13:27:07.913Z,101343.34
2023-05-25T13:28:31.046Z,101340.09
2023-05-25T13:29:53.877Z,101335.44
2023-05-25T13:31:15.767Z,101342.72
2023-05-25T13:32:38.731Z,101337.44
2023-05-25T13:34:01.611Z,101346.97
2023-05-25T13:35:37.762Z,101345.25
2023-05-25T13:37:01.381Z,101349.66
2023-05-25T13:38:24.195Z,101345.66
2023-05-25T13:39:47.091Z,101340.97
2023-05-25T13:41:11.415Z,101331.28
2023-05-25T13:42:34.241Z,101335.75
2023-05-25T13:43:57.271Z,101333.31
2023-05-25T13:45:20.103Z,101342.06
2023-05-25T13:46:42.978Z,101336.00
2023-05-25T13:48:06.008Z,101342.31
2023-05-25T13:49:28.995Z,101335.03
2023-05-25T13:50:52.056Z,101329.78
2023-05-25T13:52:15.014Z,101330.50
2023-05-25T13:53:37.826Z,101328.09
2023-05-25T13:55:00.850Z,101322.78
2023-05-25T13:56:25.059Z,101323.91
2023-05-25T13:57:47.940Z,101325.34
2023-05-25T13:59:11.271Z,101326.03
2023-05-25T14:00:33.405Z,101324.25
2023-05-25T14:01:56.490Z,101325.59
2023-05-25T14:03:19.564Z,101324.56
2023-05-25T14:04:42.506Z,101329.44
2023-05-25T14:06:04.683Z,101317.25
2023-05-25T14:07:27.503Z,101328.25
2023-05-25T14:08:50.334Z,101326.97
2023-05-25T14:10:12.492Z,101322.78
2023-05-25T14:11:36.766Z,101325.31
2023-05-25T14:12:58.714Z,101325.28
2023-05-25T14:14:31.518Z,101326.75
2023-05-25T14:15:54.704Z,101334.72
2023-05-25T14:17:17.529Z,101321.13
2023-05-25T14:18:40.369Z,101316.44
2023-05-25T14:20:04.309Z,101322.19
2023-05-25T14:21:27.474Z,101316.16
2023-05-25T14:22:49.370Z,101318.84
2023-05-25T14:24:12.254Z,101313.47
2023-05-25T14:25:34.159Z,101315.13
2023-05-25T14:26:58.296Z,101320.53
2023-05-25T14:28:21.199Z,101314.59
2023-05-25T14:29:44.870Z,101318.28
2023-05-25T14:31:07.827Z,101306.50
2023-05-25T14:32:30.752Z,101304.19
2023-05-25T14:33:53.826Z,101306.44
2023-05-25T14:35:16.739Z,101311.22
2023-05-25T14:36:39.649Z,101307.63
2023-05-25T14:38:02.471Z,101314.53
2023-05-25T14:39:25.321Z,101310.69
2023-05-25T14:40:48.201Z,101302.38
2023-05-25T14:42:11.455Z,101309.94
2023-05-25T14:43:34.940Z,101313.84
2023-05-25T14:44:57.932Z,101315.03
2023-05-25T14:46:20.858Z,101316.78
2023-05-25T14:47:43.875Z,101319.31
2023-05-25T14:49:05.857Z,101323.97
2023-05-25T14:50:30.353Z,101318.34
2023-05-25T14:51:54.029Z,101320.66
2023-05-25T14:53:16.967Z,101316.97
2023-05-25T14:54:44.619Z,101321.31
2023-05-25T14:56:08.974Z,101317.13
2023-05-25T14:57:34.571Z,101311.44
2023-05-25T14:58:57.416Z,101309.78
2023-05-25T15:00:20.615Z,101311.19
2023-05-25T15:01:44.899Z,101312.88
2023-05-25T15:03:07.833Z,101311.78
2023-05-25T15:04:31.642Z,101315.34
2023-05-25T15:05:54.740Z,101316.44
2023-05-25T15:07:16.685Z,101318.47
2023-05-25T15:08:40.376Z,101310.72
2023-05-25T15:10:03.221Z,101314.34
2023-05-25T15:11:26.869Z,101310.75
2023-05-25T15:12:51.066Z,101319.41
2023-05-25T15:14:13.911Z,101313.41
2023-05-25T15:15:36.799Z,101320.84
2023-05-25T15:16:59.646Z,101318.50
2023-05-25T15:18:22.548Z,101325.19
2023-05-25T15:19:44.465Z,101307.66
2023-05-25T15:21:07.319Z,101306.41
2023-05-25T15:22:30.182Z,101308.97
2023-05-25T15:23:52.044Z,101315.13
2023-05-25T15:25:19.002Z,101314.03
2023-05-25T15:26:47.547Z,101310.00
2023-05-25T15:28:11.976Z,101303.19
2023-05-25T15:29:34.807Z,101303.59
2023-05-25T15:30:59.080Z,101294.97
2023-05-25T15:32:23.661Z,101304.88
2023-05-25T15:33:54.208Z,101302.59
2023-05-25T15:35:19.476Z,101303.84
2023-05-25T15:36:42.385Z,101301.72
2023-05-25T15:38:05.288Z,101303.38
2023-05-25T15:39:28.159Z,101297.50
2023-05-25T15:40:50.965Z,101291.00
2023-05-25T15:42:13.795Z,101302.22
2023-05-25T15:43:38.033Z,101295.34
2023-05-25T15:45:00.820Z,101295.16
2023-05-25T15:46:22.844Z,101296.25
2023-05-25T15:47:45.900Z,101286.19
2023-05-25T15:49:11.188Z,101284.47
2023-05-25T15:50:34.261Z,101284.00
2023-05-25T15:51:57.146Z,101287.94
2023-05-25T15:53:19.090Z,101288.97
2023-05-25T15:54:41.916Z,101293.78
2023-05-25T15:56:04.820Z,101279.50
2023-05-25T15:57:27.617Z,101288.59
2023-05-25T15:58:52.673Z,101293.34
2023-05-25T16:00:17.421Z,101287.78
2023-05-25T16:01:40.356Z,101280.75
2023-05-25T16:03:03.508Z,101284.13
2023-05-25T16:04:26.369Z,101287.84
2023-05-25T16:05:49.381Z,101288.03